sensor_id;sensor_type;location;lat;lon;timestamp;pressure;altitude;pressure_sealevel;temperature;humidity
57885;BME280;43703;51.060;-0.086;2023-02-28T00:02:23;101686.41;;;2.96;58.22
57885;BME280;43703;51.060;-0.086;2023-02-28T00:04:48;101688.69;;;2.46;58.79
57885;BME280;43703;51.060;-0.086;2023-02-28T00:07:14;101691.09;;;2.36;58.62
57885;BME280;43703;51.060;-0.086;2023-02-28T00:09:39;101691.69;;;2.52;58.36
57885;BME280;43703;51.060;-0.086;2023-02-28T00:12:05;101695.67;;;2.63;58.56
57885;BME280;43703;51.060;-0.086;2023-02-28T00:14:30;101697.65;;;2.52;57.79
57885;BME280;43703;51.060;-0.086;2023-02-28T00:16:55;101698.41;;;2.85;58.54
57885;BME280;43703;51.060;-0.086;2023-02-28T00:19:20;101695.08;;;2.87;58.94
57885;BME280;43703;51.060;-0.086;2023-02-28T00:21:45;101693.62;;;2.69;58.62
57885;BME280;43703;51.060;-0.086;2023-02-28T00:24:10;101694.56;;;2.16;58.30
57885;BME280;43703;51.060;-0.086;2023-02-28T00:26:35;101693.28;;;2.44;58.86
57885;BME280;43703;51.060;-0.086;2023-02-28T00:29:00;101699.26;;;1.45;58.84
57885;BME280;43703;51.060;-0.086;2023-02-28T00:31:25;101700.98;;;1.90;59.17
57885;BME280;43703;51.060;-0.086;2023-02-28T00:33:50;101700.11;;;2.39;59.02
57885;BME280;43703;51.060;-0.086;2023-02-28T00:36:16;101701.92;;;2.71;58.83
57885;BME280;43703;51.060;-0.086;2023-02-28T00:38:41;101703.04;;;1.84;59.46
57885;BME280;43703;51.060;-0.086;2023-02-28T00:41:06;101707.02;;;2.18;58.68
57885;BME280;43703;51.060;-0.086;2023-02-28T00:43:32;101708.51;;;2.17;58.74
57885;BME280;43703;51.060;-0.086;2023-02-28T00:45:56;101707.96;;;1.60;58.66
57885;BME280;43703;51.060;-0.086;2023-02-28T00:48:21;101707.79;;;2.39;58.76
57885;BME280;43703;51.060;-0.086;2023-02-28T00:50:48;101711.89;;;2.18;59.81
57885;BME280;43703;51.060;-0.086;2023-02-28T00:53:12;101710.34;;;1.71;59.53
57885;BME280;43703;51.060;-0.086;2023-02-28T00:55:37;101715.28;;;2.19;58.85
57885;BME280;43703;51.060;-0.086;2023-02-28T00:58:02;101717.19;;;2.02;59.50
57885;BME280;43703;51.060;-0.086;2023-02-28T01:00:27;101711.25;;;1.77;59.56
57885;BME280;43703;51.060;-0.086;2023-02-28T01:02:52;101710.21;;;2.19;59.12
57885;BME280;43703;51.060;-0.086;2023-02-28T01:05:18;101707.88;;;2.00;59.58
57885;BME280;43703;51.060;-0.086;2023-02-28T01:07:42;101710.98;;;2.13;59.60
57885;BME280;43703;51.060;-0.086;2023-02-28T01:10:09;101710.73;;;1.53;60.13
57885;BME280;43703;51.060;-0.086;2023-02-28T01:12:33;101707.41;;;2.06;60.03
57885;BME280;43703;51.060;-0.086;2023-02-28T01:14:58;101709.84;;;1.81;59.61
57885;BME280;43703;51.060;-0.086;2023-02-28T01:17:23;101705.39;;;1.55;60.44
57885;BME280;43703;51.060;-0.086;2023-02-28T01:19:48;101714.12;;;1.36;60.83
57885;BME280;43703;51.060;-0.086;2023-02-28T01:22:13;101717.87;;;0.54;62.29
57885;BME280;43703;51.060;-0.086;2023-02-28T01:24:41;101718.67;;;1.46;61.86
57885;BME280;43703;51.060;-0.086;2023-02-28T01:27:04;101719.41;;;1.87;60.14
57885;BME280;43703;51.060;-0.086;2023-02-28T01:29:30;101713.25;;;1.40;61.35
57885;BME280;43703;51.060;-0.086;2023-02-28T01:31:56;101707.72;;;2.26;59.84
57885;BME280;43703;51.060;-0.086;2023-02-28T01:34:21;101707.93;;;1.78;60.07
57885;BME280;43703;51.060;-0.086;2023-02-28T01:36:46;101714.21;;;2.06;59.95
57885;BME280;43703;51.060;-0.086;2023-02-28T01:39:11;101713.69;;;1.83;60.07
57885;BME280;43703;51.060;-0.086;2023-02-28T01:41:36;101712.19;;;2.25;60.14
57885;BME280;43703;51.060;-0.086;2023-02-28T01:44:06;101715.01;;;1.97;60.53
57885;BME280;43703;51.060;-0.086;2023-02-28T01:46:27;101714.81;;;1.63;61.14
57885;BME280;43703;51.060;-0.086;2023-02-28T01:48:56;101716.02;;;1.28;61.34
57885;BME280;43703;51.060;-0.086;2023-02-28T01:51:21;101711.40;;;1.90;61.25
57885;BME280;43703;51.060;-0.086;2023-02-28T01:53:45;101712.98;;;1.72;61.29
57885;BME280;43703;51.060;-0.086;2023-02-28T01:56:08;101708.97;;;1.93;60.81
57885;BME280;43703;51.060;-0.086;2023-02-28T01:58:33;101704.33;;;2.03;60.70
57885;BME280;43703;51.060;-0.086;2023-02-28T02:00:58;101707.58;;;1.81;61.13
57885;BME280;43703;51.060;-0.086;2023-02-28T02:03:24;101705.39;;;1.76;61.11
57885;BME280;43703;51.060;-0.086;2023-02-28T02:05:49;101704.09;;;1.99;60.34
57885;BME280;43703;51.060;-0.086;2023-02-28T02:08:17;101701.23;;;1.54;61.60
57885;BME280;43703;51.060;-0.086;2023-02-28T02:10:41;101702.38;;;1.70;61.78
57885;BME280;43703;51.060;-0.086;2023-02-28T02:13:14;101702.33;;;1.85;61.17
57885;BME280;43703;51.060;-0.086;2023-02-28T02:15:33;101703.22;;;1.66;61.52
57885;BME280;43703;51.060;-0.086;2023-02-28T02:17:57;101701.70;;;1.49;61.45
57885;BME280;43703;51.060;-0.086;2023-02-28T02:20:31;101701.20;;;1.61;61.39
57885;BME280;43703;51.060;-0.086;2023-02-28T02:22:55;101699.39;;;1.15;62.22
57885;BME280;43703;51.060;-0.086;2023-02-28T02:25:17;101699.26;;;1.03;62.69
57885;BME280;43703;51.060;-0.086;2023-02-28T02:30:14;101695.98;;;0.99;62.74
57885;BME280;43703;51.060;-0.086;2023-02-28T02:34:59;101695.90;;;1.78;61.73
57885;BME280;43703;51.060;-0.086;2023-02-28T02:37:26;101688.73;;;2.18;60.44
57885;BME280;43703;51.060;-0.086;2023-02-28T02:39:48;101693.10;;;1.26;62.52
57885;BME280;43703;51.060;-0.086;2023-02-28T02:42:13;101688.63;;;1.10;62.98
57885;BME280;43703;51.060;-0.086;2023-02-28T02:44:38;101686.88;;;0.83;63.87
57885;BME280;43703;51.060;-0.086;2023-02-28T02:47:01;101688.31;;;0.72;64.29
57885;BME280;43703;51.060;-0.086;2023-02-28T02:49:26;101691.54;;;1.13;63.24
57885;BME280;43703;51.060;-0.086;2023-02-28T02:51:48;101687.04;;;1.27;63.13
57885;BME280;43703;51.060;-0.086;2023-02-28T02:54:15;101687.29;;;1.67;62.25
57885;BME280;43703;51.060;-0.086;2023-02-28T02:56:39;101690.18;;;1.75;62.29
57885;BME280;43703;51.060;-0.086;2023-02-28T02:59:07;101691.34;;;1.06;63.41
57885;BME280;43703;51.060;-0.086;2023-02-28T03:01:31;101694.30;;;0.90;63.65
57885;BME280;43703;51.060;-0.086;2023-02-28T03:03:56;101696.34;;;1.31;62.97
57885;BME280;43703;51.060;-0.086;2023-02-28T03:06:20;101698.54;;;0.89;62.81
57885;BME280;43703;51.060;-0.086;2023-02-28T03:08:49;101700.95;;;0.94;63.54
57885;BME280;43703;51.060;-0.086;2023-02-28T03:11:14;101703.69;;;0.39;65.09
57885;BME280;43703;51.060;-0.086;2023-02-28T03:13:46;101700.68;;;0.64;64.53
57885;BME280;43703;51.060;-0.086;2023-02-28T03:16:15;101701.01;;;1.13;64.23
57885;BME280;43703;51.060;-0.086;2023-02-28T03:18:34;101708.71;;;1.22;63.26
57885;BME280;43703;51.060;-0.086;2023-02-28T03:20:59;101706.08;;;1.15;64.14
57885;BME280;43703;51.060;-0.086;2023-02-28T03:23:20;101712.26;;;0.96;65.23
57885;BME280;43703;51.060;-0.086;2023-02-28T03:25:51;101711.95;;;0.84;65.43
57885;BME280;43703;51.060;-0.086;2023-02-28T03:28:14;101707.07;;;1.39;63.55
57885;BME280;43703;51.060;-0.086;2023-02-28T03:30:39;101705.38;;;0.85;63.77
57885;BME280;43703;51.060;-0.086;2023-02-28T03:33:01;101705.72;;;1.25;63.07
57885;BME280;43703;51.060;-0.086;2023-02-28T03:35:25;101699.41;;;0.67;64.08
57885;BME280;43703;51.060;-0.086;2023-02-28T03:37:51;101701.93;;;0.75;63.98
57885;BME280;43703;51.060;-0.086;2023-02-28T03:40:16;101699.74;;;0.90;64.22
57885;BME280;43703;51.060;-0.086;2023-02-28T03:42:42;101704.42;;;1.37;62.91
57885;BME280;43703;51.060;-0.086;2023-02-28T03:45:10;101700.98;;;1.04;64.43
57885;BME280;43703;51.060;-0.086;2023-02-28T03:47:32;101708.49;;;1.22;63.66
57885;BME280;43703;51.060;-0.086;2023-02-28T03:49:58;101706.61;;;0.97;64.11
57885;BME280;43703;51.060;-0.086;2023-02-28T03:52:23;101708.21;;;1.23;63.05
57885;BME280;43703;51.060;-0.086;2023-02-28T03:54:49;101706.38;;;1.03;64.12
57885;BME280;43703;51.060;-0.086;2023-02-28T03:57:15;101706.89;;;0.94;64.60
57885;BME280;43703;51.060;-0.086;2023-02-28T03:59:38;101712.99;;;1.56;63.51
57885;BME280;43703;51.060;-0.086;2023-02-28T04:02:02;101712.31;;;1.10;63.56
57885;BME280;43703;51.060;-0.086;2023-02-28T04:04:27;101716.71;;;1.15;63.94
57885;BME280;43703;51.060;-0.086;2023-02-28T04:07:02;101712.65;;;1.31;63.70
57885;BME280;43703;51.060;-0.086;2023-02-28T04:09:17;101712.06;;;0.83;64.75
57885;BME280;43703;51.060;-0.086;2023-02-28T04:11:44;101712.24;;;0.60;65.77
57885;BME280;43703;51.060;-0.086;2023-02-28T04:14:09;101709.16;;;0.92;64.23
57885;BME280;43703;51.060;-0.086;2023-02-28T04:16:34;101706.24;;;0.65;64.93
57885;BME280;43703;51.060;-0.086;2023-02-28T04:18:58;101710.54;;;1.09;65.19
57885;BME280;43703;51.060;-0.086;2023-02-28T04:21:23;101712.69;;;0.58;65.34
57885;BME280;43703;51.060;-0.086;2023-02-28T04:23:49;101718.60;;;1.31;65.18
57885;BME280;43703;51.060;-0.086;2023-02-28T04:26:14;101716.90;;;0.57;66.33
57885;BME280;43703;51.060;-0.086;2023-02-28T04:28:39;101715.27;;;1.16;65.62
57885;BME280;43703;51.060;-0.086;2023-02-28T04:31:05;101717.23;;;0.99;65.42
57885;BME280;43703;51.060;-0.086;2023-02-28T04:33:31;101713.15;;;1.02;64.82
57885;BME280;43703;51.060;-0.086;2023-02-28T04:35:59;101714.92;;;0.61;65.83
57885;BME280;43703;51.060;-0.086;2023-02-28T04:38:20;101708.96;;;1.32;63.93
57885;BME280;43703;51.060;-0.086;2023-02-28T04:40:45;101718.38;;;0.67;64.71
57885;BME280;43703;51.060;-0.086;2023-02-28T04:43:10;101725.21;;;1.59;64.33
57885;BME280;43703;51.060;-0.086;2023-02-28T04:45:36;101727.56;;;0.79;65.75
57885;BME280;43703;51.060;-0.086;2023-02-28T04:48:01;101728.24;;;0.82;65.24
57885;BME280;43703;51.060;-0.086;2023-02-28T04:50:26;101721.38;;;0.85;65.74
57885;BME280;43703;51.060;-0.086;2023-02-28T04:52:52;101727.14;;;0.61;66.62
57885;BME280;43703;51.060;-0.086;2023-02-28T04:55:19;101729.32;;;1.71;64.41
57885;BME280;43703;51.060;-0.086;2023-02-28T04:57:43;101732.92;;;1.84;64.21
57885;BME280;43703;51.060;-0.086;2023-02-28T05:00:09;101732.22;;;1.05;64.54
57885;BME280;43703;51.060;-0.086;2023-02-28T05:02:34;101733.48;;;0.78;65.31
57885;BME280;43703;51.060;-0.086;2023-02-28T05:05:00;101732.30;;;1.40;64.91
57885;BME280;43703;51.060;-0.086;2023-02-28T05:07:25;101729.54;;;0.58;64.98
57885;BME280;43703;51.060;-0.086;2023-02-28T05:09:50;101726.84;;;1.08;65.48
57885;BME280;43703;51.060;-0.086;2023-02-28T05:12:16;101727.36;;;1.27;65.36
57885;BME280;43703;51.060;-0.086;2023-02-28T05:14:41;101727.28;;;0.96;64.58
57885;BME280;43703;51.060;-0.086;2023-02-28T05:17:08;101721.67;;;1.40;64.51
57885;BME280;43703;51.060;-0.086;2023-02-28T05:19:32;101717.86;;;0.86;65.45
57885;BME280;43703;51.060;-0.086;2023-02-28T05:21:57;101717.81;;;0.81;65.03
57885;BME280;43703;51.060;-0.086;2023-02-28T05:24:22;101717.40;;;1.24;65.13
57885;BME280;43703;51.060;-0.086;2023-02-28T05:26:48;101718.98;;;1.35;64.26
57885;BME280;43703;51.060;-0.086;2023-02-28T05:29:13;101719.66;;;0.97;64.87
57885;BME280;43703;51.060;-0.086;2023-02-28T05:31:38;101723.59;;;0.62;65.13
57885;BME280;43703;51.060;-0.086;2023-02-28T05:34:04;101730.68;;;0.29;66.07
57885;BME280;43703;51.060;-0.086;2023-02-28T05:36:30;101732.69;;;1.39;64.14
57885;BME280;43703;51.060;-0.086;2023-02-28T05:38:55;101734.61;;;1.06;65.47
57885;BME280;43703;51.060;-0.086;2023-02-28T05:41:21;101735.24;;;0.99;65.08
57885;BME280;43703;51.060;-0.086;2023-02-28T05:43:46;101737.35;;;1.02;64.77
57885;BME280;43703;51.060;-0.086;2023-02-28T05:46:12;101743.31;;;0.92;65.35
57885;BME280;43703;51.060;-0.086;2023-02-28T05:48:38;101746.22;;;1.06;66.83
57885;BME280;43703;51.060;-0.086;2023-02-28T05:51:04;101748.06;;;0.54;67.18
57885;BME280;43703;51.060;-0.086;2023-02-28T05:53:29;101749.36;;;1.74;65.76
57885;BME280;43703;51.060;-0.086;2023-02-28T05:55:54;101749.84;;;1.83;65.86
57885;BME280;43703;51.060;-0.086;2023-02-28T05:58:20;101745.52;;;0.89;66.66
57885;BME280;43703;51.060;-0.086;2023-02-28T06:00:45;101747.57;;;1.64;67.06
57885;BME280;43703;51.060;-0.086;2023-02-28T06:03:10;101750.44;;;1.33;67.10
57885;BME280;43703;51.060;-0.086;2023-02-28T06:05:36;101754.21;;;1.40;66.06
57885;BME280;43703;51.060;-0.086;2023-02-28T06:08:01;101752.85;;;1.94;65.90
57885;BME280;43703;51.060;-0.086;2023-02-28T06:10:27;101754.63;;;1.76;65.82
57885;BME280;43703;51.060;-0.086;2023-02-28T06:12:53;101752.66;;;2.03;65.48
57885;BME280;43703;51.060;-0.086;2023-02-28T06:15:18;101756.19;;;2.02;65.91
57885;BME280;43703;51.060;-0.086;2023-02-28T06:17:44;101752.08;;;2.24;64.47
57885;BME280;43703;51.060;-0.086;2023-02-28T06:20:10;101753.56;;;1.84;65.24
57885;BME280;43703;51.060;-0.086;2023-02-28T06:22:34;101755.65;;;1.71;64.56
57885;BME280;43703;51.060;-0.086;2023-02-28T06:24:58;101759.33;;;1.92;66.22
57885;BME280;43703;51.060;-0.086;2023-02-28T06:27:24;101754.09;;;2.30;65.20
57885;BME280;43703;51.060;-0.086;2023-02-28T06:29:54;101750.98;;;1.61;65.76
57885;BME280;43703;51.060;-0.086;2023-02-28T06:32:15;101746.52;;;2.45;65.11
57885;BME280;43703;51.060;-0.086;2023-02-28T06:34:40;101744.74;;;2.10;65.33
57885;BME280;43703;51.060;-0.086;2023-02-28T06:37:06;101747.55;;;1.77;64.59
57885;BME280;43703;51.060;-0.086;2023-02-28T06:39:32;101739.73;;;2.32;64.97
57885;BME280;43703;51.060;-0.086;2023-02-28T06:41:58;101746.81;;;1.62;64.95
57885;BME280;43703;51.060;-0.086;2023-02-28T06:44:23;101745.10;;;2.03;65.66
57885;BME280;43703;51.060;-0.086;2023-02-28T06:46:48;101747.07;;;2.20;64.91
57885;BME280;43703;51.060;-0.086;2023-02-28T06:49:13;101746.65;;;2.60;64.82
57885;BME280;43703;51.060;-0.086;2023-02-28T06:51:41;101746.22;;;2.25;64.73
57885;BME280;43703;51.060;-0.086;2023-02-28T06:54:05;101741.41;;;2.52;65.08
57885;BME280;43703;51.060;-0.086;2023-02-28T06:56:29;101743.60;;;2.41;64.90
57885;BME280;43703;51.060;-0.086;2023-02-28T06:58:55;101743.36;;;2.44;64.90
57885;BME280;43703;51.060;-0.086;2023-02-28T07:01:20;101748.13;;;2.71;64.06
57885;BME280;43703;51.060;-0.086;2023-02-28T07:03:46;101754.40;;;2.48;64.62
57885;BME280;43703;51.060;-0.086;2023-02-28T07:06:10;101752.09;;;2.20;64.58
57885;BME280;43703;51.060;-0.086;2023-02-28T07:08:36;101754.72;;;2.26;64.71
57885;BME280;43703;51.060;-0.086;2023-02-28T07:11:02;101759.83;;;2.40;64.22
57885;BME280;43703;51.060;-0.086;2023-02-28T07:13:27;101762.72;;;2.11;64.09
57885;BME280;43703;51.060;-0.086;2023-02-28T07:15:54;101766.72;;;1.43;64.58
57885;BME280;43703;51.060;-0.086;2023-02-28T07:18:17;101769.12;;;1.08;65.56
57885;BME280;43703;51.060;-0.086;2023-02-28T07:20:42;101771.45;;;1.74;65.85
57885;BME280;43703;51.060;-0.086;2023-02-28T07:23:08;101773.22;;;1.53;65.42
57885;BME280;43703;51.060;-0.086;2023-02-28T07:25:33;101770.99;;;2.12;65.12
57885;BME280;43703;51.060;-0.086;2023-02-28T07:27:59;101772.01;;;1.62;65.58
57885;BME280;43703;51.060;-0.086;2023-02-28T07:30:24;101771.68;;;1.69;66.29
57885;BME280;43703;51.060;-0.086;2023-02-28T07:32:49;101772.64;;;2.00;65.64
57885;BME280;43703;51.060;-0.086;2023-02-28T07:35:15;101770.97;;;2.30;65.50
57885;BME280;43703;51.060;-0.086;2023-02-28T07:37:40;101767.78;;;2.60;64.37
57885;BME280;43703;51.060;-0.086;2023-02-28T07:40:07;101771.42;;;2.49;64.51
57885;BME280;43703;51.060;-0.086;2023-02-28T07:42:30;101773.57;;;2.63;64.77
57885;BME280;43703;51.060;-0.086;2023-02-28T07:44:55;101778.87;;;2.02;65.40
57885;BME280;43703;51.060;-0.086;2023-02-28T07:47:21;101778.17;;;2.47;64.45
57885;BME280;43703;51.060;-0.086;2023-02-28T07:49:46;101785.28;;;2.11;65.30
57885;BME280;43703;51.060;-0.086;2023-02-28T07:52:12;101785.82;;;2.81;64.11
57885;BME280;43703;51.060;-0.086;2023-02-28T07:54:37;101782.92;;;2.95;66.39
57885;BME280;43703;51.060;-0.086;2023-02-28T07:57:02;101784.65;;;2.63;64.43
57885;BME280;43703;51.060;-0.086;2023-02-28T07:59:27;101782.25;;;2.48;66.04
57885;BME280;43703;51.060;-0.086;2023-02-28T08:01:52;101780.39;;;3.19;65.27
57885;BME280;43703;51.060;-0.086;2023-02-28T08:04:18;101779.73;;;2.74;63.57
57885;BME280;43703;51.060;-0.086;2023-02-28T08:06:43;101779.43;;;2.71;63.88
57885;BME280;43703;51.060;-0.086;2023-02-28T08:09:09;101782.36;;;2.77;65.51
57885;BME280;43703;51.060;-0.086;2023-02-28T08:11:34;101783.91;;;2.95;63.84
57885;BME280;43703;51.060;-0.086;2023-02-28T08:14:00;101781.59;;;2.57;64.28
57885;BME280;43703;51.060;-0.086;2023-02-28T08:16:25;101782.27;;;3.01;64.51
57885;BME280;43703;51.060;-0.086;2023-02-28T08:18:50;101777.80;;;3.49;63.85
57885;BME280;43703;51.060;-0.086;2023-02-28T08:21:15;101776.42;;;3.49;65.01
57885;BME280;43703;51.060;-0.086;2023-02-28T08:23:41;101782.88;;;3.24;63.45
57885;BME280;43703;51.060;-0.086;2023-02-28T08:26:05;101782.39;;;3.42;64.25
57885;BME280;43703;51.060;-0.086;2023-02-28T08:28:31;101785.27;;;3.36;63.41
57885;BME280;43703;51.060;-0.086;2023-02-28T08:30:56;101781.00;;;4.39;63.33
57885;BME280;43703;51.060;-0.086;2023-02-28T08:33:22;101784.59;;;4.85;63.12
57885;BME280;43703;51.060;-0.086;2023-02-28T08:35:47;101783.97;;;4.21;60.52
57885;BME280;43703;51.060;-0.086;2023-02-28T08:38:12;101788.45;;;4.54;61.61
57885;BME280;43703;51.060;-0.086;2023-02-28T08:40:37;101791.67;;;4.25;61.76
57885;BME280;43703;51.060;-0.086;2023-02-28T08:43:04;101788.04;;;5.32;65.40
57885;BME280;43703;51.060;-0.086;2023-02-28T08:45:28;101785.75;;;5.88;64.07
57885;BME280;43703;51.060;-0.086;2023-02-28T08:47:54;101783.85;;;7.96;61.13
57885;BME280;43703;51.060;-0.086;2023-02-28T08:50:18;101783.70;;;8.13;57.07
57885;BME280;43703;51.060;-0.086;2023-02-28T08:52:43;101784.77;;;8.34;52.51
57885;BME280;43703;51.060;-0.086;2023-02-28T08:55:09;101781.31;;;7.33;50.89
57885;BME280;43703;51.060;-0.086;2023-02-28T08:57:34;101786.92;;;8.57;52.52
57885;BME280;43703;51.060;-0.086;2023-02-28T08:59:59;101787.84;;;8.50;50.79
57885;BME280;43703;51.060;-0.086;2023-02-28T09:02:24;101791.52;;;9.78;50.02
57885;BME280;43703;51.060;-0.086;2023-02-28T09:04:49;101782.96;;;9.68;49.14
57885;BME280;43703;51.060;-0.086;2023-02-28T09:07:14;101781.45;;;9.99;47.32
57885;BME280;43703;51.060;-0.086;2023-02-28T09:09:39;101779.70;;;10.27;46.69
57885;BME280;43703;51.060;-0.086;2023-02-28T09:12:05;101775.33;;;10.67;45.91
57885;BME280;43703;51.060;-0.086;2023-02-28T09:14:30;101779.38;;;10.29;44.23
57885;BME280;43703;51.060;-0.086;2023-02-28T09:16:55;101781.24;;;9.45;44.27
57885;BME280;43703;51.060;-0.086;2023-02-28T09:19:20;101781.95;;;9.09;45.04
57885;BME280;43703;51.060;-0.086;2023-02-28T09:21:45;101782.66;;;8.73;45.99
57885;BME280;43703;51.060;-0.086;2023-02-28T09:24:10;101780.27;;;8.50;46.17
57885;BME280;43703;51.060;-0.086;2023-02-28T09:26:35;101776.57;;;9.03;46.38
57885;BME280;43703;51.060;-0.086;2023-02-28T09:29:00;101772.50;;;8.49;46.62
57885;BME280;43703;51.060;-0.086;2023-02-28T09:31:27;101769.08;;;8.65;48.76
57885;BME280;43703;51.060;-0.086;2023-02-28T09:33:52;101777.32;;;9.09;47.08
57885;BME280;43703;51.060;-0.086;2023-02-28T09:36:16;101773.44;;;8.47;46.20
57885;BME280;43703;51.060;-0.086;2023-02-28T09:38:40;101771.99;;;9.20;44.65
57885;BME280;43703;51.060;-0.086;2023-02-28T09:41:13;101770.30;;;7.74;47.04
57885;BME280;43703;51.060;-0.086;2023-02-28T09:43:35;101766.16;;;8.77;47.58
57885;BME280;43703;51.060;-0.086;2023-02-28T09:46:00;101770.96;;;7.36;47.85
57885;BME280;43703;51.060;-0.086;2023-02-28T09:48:25;101764.97;;;7.69;49.66
57885;BME280;43703;51.060;-0.086;2023-02-28T09:50:49;101767.51;;;7.01;49.04
57885;BME280;43703;51.060;-0.086;2023-02-28T09:53:18;101764.29;;;7.99;48.51
57885;BME280;43703;51.060;-0.086;2023-02-28T09:55:42;101762.64;;;7.12;49.27
57885;BME280;43703;51.060;-0.086;2023-02-28T09:58:02;101756.58;;;8.16;48.64
57885;BME280;43703;51.060;-0.086;2023-02-28T10:00:32;101759.79;;;8.07;48.25
57885;BME280;43703;51.060;-0.086;2023-02-28T10:03:03;101766.59;;;7.73;48.47
57885;BME280;43703;51.060;-0.086;2023-02-28T10:05:19;101761.45;;;7.54;50.79
57885;BME280;43703;51.060;-0.086;2023-02-28T10:07:52;101765.82;;;7.49;49.03
57885;BME280;43703;51.060;-0.086;2023-02-28T10:10:17;101767.80;;;6.85;49.15
57885;BME280;43703;51.060;-0.086;2023-02-28T10:12:33;101769.34;;;6.50;49.67
57885;BME280;43703;51.060;-0.086;2023-02-28T10:14:58;101774.21;;;6.26;49.94
57885;BME280;43703;51.060;-0.086;2023-02-28T10:17:25;101769.32;;;7.03;50.46
57885;BME280;43703;51.060;-0.086;2023-02-28T10:19:56;101769.43;;;5.90;51.00
57885;BME280;43703;51.060;-0.086;2023-02-28T10:22:15;101759.17;;;6.20;52.03
57885;BME280;43703;51.060;-0.086;2023-02-28T10:24:40;101772.21;;;5.26;52.70
57885;BME280;43703;51.060;-0.086;2023-02-28T10:27:13;101744.71;;;5.63;54.09
57885;BME280;43703;51.060;-0.086;2023-02-28T10:29:28;101754.14;;;5.68;53.71
57885;BME280;43703;51.060;-0.086;2023-02-28T10:31:52;101734.43;;;5.88;52.74
57885;BME280;43703;51.060;-0.086;2023-02-28T10:34:18;101735.31;;;6.50;52.66
57885;BME280;43703;51.060;-0.086;2023-02-28T10:36:43;101752.93;;;4.80;53.50
57885;BME280;43703;51.060;-0.086;2023-02-28T10:41:33;101734.88;;;6.45;53.01
57885;BME280;43703;51.060;-0.086;2023-02-28T10:46:23;101735.21;;;6.83;51.42
57885;BME280;43703;51.060;-0.086;2023-02-28T10:51:15;101735.30;;;5.79;53.20
57885;BME280;43703;51.060;-0.086;2023-02-28T10:53:47;101725.36;;;6.67;52.01
57885;BME280;43703;51.060;-0.086;2023-02-28T10:56:05;101721.21;;;6.60;52.45
57885;BME280;43703;51.060;-0.086;2023-02-28T10:58:31;101721.42;;;5.60;53.55
57885;BME280;43703;51.060;-0.086;2023-02-28T11:00:54;101732.09;;;6.05;53.05
57885;BME280;43703;51.060;-0.086;2023-02-28T11:03:24;101724.81;;;6.10;52.30
57885;BME280;43703;51.060;-0.086;2023-02-28T11:05:43;101729.07;;;5.40;53.96
57885;BME280;43703;51.060;-0.086;2023-02-28T11:08:14;101715.80;;;6.33;53.39
57885;BME280;43703;51.060;-0.086;2023-02-28T11:10:34;101716.36;;;6.53;51.95
57885;BME280;43703;51.060;-0.086;2023-02-28T11:12:59;101717.96;;;6.51;53.31
57885;BME280;43703;51.060;-0.086;2023-02-28T11:15:26;101720.08;;;7.01;52.77
57885;BME280;43703;51.060;-0.086;2023-02-28T11:17:54;101726.93;;;6.55;52.80
57885;BME280;43703;51.060;-0.086;2023-02-28T11:20:20;101715.13;;;6.60;51.48
57885;BME280;43703;51.060;-0.086;2023-02-28T11:22:43;101713.55;;;6.40;51.80
57885;BME280;43703;51.060;-0.086;2023-02-28T11:25:08;101711.38;;;6.35;52.66
57885;BME280;43703;51.060;-0.086;2023-02-28T11:29:54;101706.38;;;6.70;53.77
57885;BME280;43703;51.060;-0.086;2023-02-28T11:32:20;101703.88;;;6.97;52.95
57885;BME280;43703;51.060;-0.086;2023-02-28T11:34:45;101699.95;;;6.63;51.83
57885;BME280;43703;51.060;-0.086;2023-02-28T11:37:13;101695.45;;;6.21;52.59
57885;BME280;43703;51.060;-0.086;2023-02-28T11:39:36;101688.12;;;6.24;52.58
57885;BME280;43703;51.060;-0.086;2023-02-28T11:42:13;101692.15;;;6.30;52.42
57885;BME280;43703;51.060;-0.086;2023-02-28T11:44:37;101693.00;;;5.87;52.79
57885;BME280;43703;51.060;-0.086;2023-02-28T11:46:52;101691.44;;;5.91;53.12
57885;BME280;43703;51.060;-0.086;2023-02-28T11:49:27;101694.25;;;6.62;52.75
57885;BME280;43703;51.060;-0.086;2023-02-28T11:51:47;101693.03;;;6.33;52.84
57885;BME280;43703;51.060;-0.086;2023-02-28T11:56:35;101697.79;;;6.35;53.86
57885;BME280;43703;51.060;-0.086;2023-02-28T11:59:06;101701.10;;;5.73;53.74
57885;BME280;43703;51.060;-0.086;2023-02-28T12:01:28;101699.93;;;5.73;53.17
57885;BME280;43703;51.060;-0.086;2023-02-28T12:03:55;101696.45;;;5.86;53.19
57885;BME280;43703;51.060;-0.086;2023-02-28T12:06:21;101699.98;;;5.51;54.82
57885;BME280;43703;51.060;-0.086;2023-02-28T12:08:47;101679.31;;;6.72;53.47
57885;BME280;43703;51.060;-0.086;2023-02-28T12:11:09;101676.05;;;7.08;52.53
57885;BME280;43703;51.060;-0.086;2023-02-28T12:13:33;101667.30;;;7.00;53.27
57885;BME280;43703;51.060;-0.086;2023-02-28T12:16:10;101663.87;;;7.11;53.15
57885;BME280;43703;51.060;-0.086;2023-02-28T12:18:27;101654.24;;;7.80;52.31
57885;BME280;43703;51.060;-0.086;2023-02-28T12:20:47;101652.60;;;6.57;52.60
57885;BME280;43703;51.060;-0.086;2023-02-28T12:25:47;101638.83;;;6.31;52.90
57885;BME280;43703;51.060;-0.086;2023-02-28T12:27:57;101635.52;;;6.76;52.11
57885;BME280;43703;51.060;-0.086;2023-02-28T12:30:25;101633.89;;;6.24;53.66
57885;BME280;43703;51.060;-0.086;2023-02-28T12:32:51;101631.66;;;6.65;53.47
57885;BME280;43703;51.060;-0.086;2023-02-28T12:35:16;101641.89;;;6.23;52.86
57885;BME280;43703;51.060;-0.086;2023-02-28T12:37:41;101640.94;;;5.91;53.71
57885;BME280;43703;51.060;-0.086;2023-02-28T12:40:08;101633.07;;;6.09;53.70
57885;BME280;43703;51.060;-0.086;2023-02-28T12:42:31;101629.90;;;6.29;54.28
57885;BME280;43703;51.060;-0.086;2023-02-28T12:44:57;101626.75;;;6.25;54.52
57885;BME280;43703;51.060;-0.086;2023-02-28T12:47:18;101627.96;;;6.23;54.32
57885;BME280;43703;51.060;-0.086;2023-02-28T12:49:47;101617.71;;;6.19;54.64
57885;BME280;43703;51.060;-0.086;2023-02-28T12:52:13;101623.05;;;5.49;56.12
57885;BME280;43703;51.060;-0.086;2023-02-28T12:54:40;101616.58;;;5.90;55.49
57885;BME280;43703;51.060;-0.086;2023-02-28T12:57:04;101608.16;;;6.11;55.44
57885;BME280;43703;51.060;-0.086;2023-02-28T12:59:27;101615.03;;;6.15;55.83